Lakewood, Wisconsin
Current Conditions -  °F | °C
As of 8:35 AM on Sunday 23 Nov 2014 (Local Time) from KAIG Reporting Station
Moderate Fog Moderate Fog  
Wind Chill: 34°   Ceiling: 300
Heat Index: 39°   Visibility: 0mi
Dew Point: 39°   Wind: 7mph
Humidity: 100%   Direction: 170°S
Pressure: 29.57"   Gusts: NA
Location:  45.3°N, 88.52°W
Report Text: KAIG 231435Z AUTO 17006KT M1/4SM FG OVC003 04/04 A2957 RMK AO2 T00400040
Loading
Personal Weather Stations






























Interactive Weather Map New forecast layout! Learn more

10-Day Weather Forecast

Advertisements
Track Severe Weather on mobile